sensor_id;sensor_type;location;lat;lon;timestamp;pressure;altitude;pressure_sealevel;temperature;humidity
39769;BME280;38939;47.824;14.642;2023-03-23T00:00:36;96548.06;;;9.23;71.29
39769;BME280;38939;47.824;14.642;2023-03-23T00:01:37;96549.50;;;9.12;72.13
39769;BME280;38939;47.824;14.642;2023-03-23T00:02:37;96552.50;;;9.02;72.60
39769;BME280;38939;47.824;14.642;2023-03-23T00:03:40;96553.50;;;9.01;72.53
39769;BME280;38939;47.824;14.642;2023-03-23T00:04:41;96551.50;;;8.90;73.32
39769;BME280;38939;47.824;14.642;2023-03-23T00:05:43;96545.28;;;8.84;72.58
39769;BME280;38939;47.824;14.642;2023-03-23T00:06:50;96554.50;;;8.87;73.45
39769;BME280;38939;47.824;14.642;2023-03-23T00:07:51;96547.88;;;8.77;73.46
39769;BME280;38939;47.824;14.642;2023-03-23T00:08:53;96542.69;;;8.71;74.02
39769;BME280;38939;47.824;14.642;2023-03-23T00:09:59;96551.28;;;8.71;73.95
39769;BME280;38939;47.824;14.642;2023-03-23T00:11:04;96550.50;;;8.71;73.59
39769;BME280;38939;47.824;14.642;2023-03-23T00:12:05;96551.28;;;8.65;73.97
39769;BME280;38939;47.824;14.642;2023-03-23T00:13:06;96552.28;;;8.64;74.17
39769;BME280;38939;47.824;14.642;2023-03-23T00:14:08;96550.69;;;8.63;74.40
39769;BME280;38939;47.824;14.642;2023-03-23T00:15:13;96548.28;;;8.68;73.87
39769;BME280;38939;47.824;14.642;2023-03-23T00:16:19;96549.88;;;8.69;74.21
39769;BME280;38939;47.824;14.642;2023-03-23T00:17:20;96545.66;;;8.68;74.56
39769;BME280;38939;47.824;14.642;2023-03-23T00:18:21;96549.06;;;8.68;74.10
39769;BME280;38939;47.824;14.642;2023-03-23T00:19:22;96555.47;;;8.66;73.48
39769;BME280;38939;47.824;14.642;2023-03-23T00:20:23;96551.88;;;8.67;73.30
39769;BME280;38939;47.824;14.642;2023-03-23T00:21:27;96548.88;;;8.70;72.78
39769;BME280;38939;47.824;14.642;2023-03-23T00:22:33;96547.47;;;8.74;72.57
39769;BME280;38939;47.824;14.642;2023-03-23T00:23:38;96548.69;;;8.78;72.30
39769;BME280;38939;47.824;14.642;2023-03-23T00:24:40;96555.50;;;8.79;72.31
39769;BME280;38939;47.824;14.642;2023-03-23T00:25:41;96550.06;;;8.80;72.66
39769;BME280;38939;47.824;14.642;2023-03-23T00:26:43;96543.47;;;8.78;72.50
39769;BME280;38939;47.824;14.642;2023-03-23T00:27:44;96550.28;;;8.79;72.33
39769;BME280;38939;47.824;14.642;2023-03-23T00:28:46;96543.09;;;8.81;71.92
39769;BME280;38939;47.824;14.642;2023-03-23T00:29:50;96551.50;;;8.83;71.63
39769;BME280;38939;47.824;14.642;2023-03-23T00:30:59;96547.50;;;8.87;71.12
39769;BME280;38939;47.824;14.642;2023-03-23T00:32:00;96551.69;;;8.88;71.39
39769;BME280;38939;47.824;14.642;2023-03-23T00:33:02;96546.28;;;8.90;71.78
39769;BME280;38939;47.824;14.642;2023-03-23T00:34:04;96544.72;;;8.89;70.87
39769;BME280;38939;47.824;14.642;2023-03-23T00:35:05;96548.09;;;8.89;70.87
39769;BME280;38939;47.824;14.642;2023-03-23T00:36:08;96549.09;;;8.88;71.61
39769;BME280;38939;47.824;14.642;2023-03-23T00:37:10;96545.69;;;8.81;72.42
39769;BME280;38939;47.824;14.642;2023-03-23T00:38:11;96546.06;;;8.78;72.36
39769;BME280;38939;47.824;14.642;2023-03-23T00:39:11;96540.69;;;8.79;72.27
39769;BME280;38939;47.824;14.642;2023-03-23T00:40:12;96548.28;;;8.81;71.23
39769;BME280;38939;47.824;14.642;2023-03-23T00:41:13;96545.47;;;8.82;71.85
39769;BME280;38939;47.824;14.642;2023-03-23T00:42:16;96547.88;;;8.84;71.10
39769;BME280;38939;47.824;14.642;2023-03-23T00:43:18;96540.69;;;8.86;71.32
39769;BME280;38939;47.824;14.642;2023-03-23T00:44:19;96543.09;;;8.88;71.08
39769;BME280;38939;47.824;14.642;2023-03-23T00:45:23;96537.28;;;8.86;71.07
39769;BME280;38939;47.824;14.642;2023-03-23T00:46:25;96543.88;;;8.81;71.37
39769;BME280;38939;47.824;14.642;2023-03-23T00:47:26;96544.28;;;8.78;71.14
39769;BME280;38939;47.824;14.642;2023-03-23T00:48:29;96540.28;;;8.76;70.98
39769;BME280;38939;47.824;14.642;2023-03-23T00:49:30;96537.06;;;8.74;71.74
39769;BME280;38939;47.824;14.642;2023-03-23T00:50:31;96532.06;;;8.72;71.49
39769;BME280;38939;47.824;14.642;2023-03-23T00:51:31;96542.28;;;8.74;71.69
39769;BME280;38939;47.824;14.642;2023-03-23T00:52:32;96542.88;;;8.76;71.47
39769;BME280;38939;47.824;14.642;2023-03-23T00:53:33;96550.28;;;8.79;71.62
39769;BME280;38939;47.824;14.642;2023-03-23T00:54:34;96539.66;;;8.80;70.62
39769;BME280;38939;47.824;14.642;2023-03-23T00:55:37;96539.66;;;8.80;70.84
39769;BME280;38939;47.824;14.642;2023-03-23T00:56:38;96539.06;;;8.78;70.58
39769;BME280;38939;47.824;14.642;2023-03-23T00:57:42;96542.28;;;8.80;71.27
39769;BME280;38939;47.824;14.642;2023-03-23T00:58:43;96536.88;;;8.82;70.36
39769;BME280;38939;47.824;14.642;2023-03-23T00:59:43;96535.88;;;8.83;70.23
39769;BME280;38939;47.824;14.642;2023-03-23T01:00:44;96543.47;;;8.85;70.95
39769;BME280;38939;47.824;14.642;2023-03-23T01:01:46;96536.88;;;8.82;70.69
39769;BME280;38939;47.824;14.642;2023-03-23T01:02:46;96542.28;;;8.80;70.55
39769;BME280;38939;47.824;14.642;2023-03-23T01:03:47;96536.47;;;8.78;70.55
39769;BME280;38939;47.824;14.642;2023-03-23T01:04:50;96542.28;;;8.74;70.75
39769;BME280;38939;47.824;14.642;2023-03-23T01:05:52;96535.06;;;8.76;70.55
39769;BME280;38939;47.824;14.642;2023-03-23T01:06:53;96536.09;;;8.75;70.49
39769;BME280;38939;47.824;14.642;2023-03-23T01:07:54;96530.28;;;8.73;71.25
39769;BME280;38939;47.824;14.642;2023-03-23T01:08:55;96532.47;;;8.69;71.79
39769;BME280;38939;47.824;14.642;2023-03-23T01:09:57;96531.28;;;8.65;71.91
39769;BME280;38939;47.824;14.642;2023-03-23T01:11:03;96530.47;;;8.65;71.58
39769;BME280;38939;47.824;14.642;2023-03-23T01:12:04;96527.88;;;8.65;71.70
39769;BME280;38939;47.824;14.642;2023-03-23T01:13:07;96529.47;;;8.66;71.38
39769;BME280;38939;47.824;14.642;2023-03-23T01:14:09;96526.66;;;8.67;71.09
39769;BME280;38939;47.824;14.642;2023-03-23T01:15:16;96524.25;;;8.66;71.41
39769;BME280;38939;47.824;14.642;2023-03-23T01:16:17;96514.66;;;8.59;72.97
39769;BME280;38939;47.824;14.642;2023-03-23T01:17:18;96517.44;;;8.51;72.32
39769;BME280;38939;47.824;14.642;2023-03-23T01:18:20;96517.44;;;8.51;73.09
39769;BME280;38939;47.824;14.642;2023-03-23T01:19:21;96514.25;;;8.49;72.71
39769;BME280;38939;47.824;14.642;2023-03-23T01:20:23;96520.44;;;8.48;73.03
39769;BME280;38939;47.824;14.642;2023-03-23T01:21:26;96517.03;;;8.41;73.57
39769;BME280;38939;47.824;14.642;2023-03-23T01:22:27;96520.59;;;8.40;73.00
39769;BME280;38939;47.824;14.642;2023-03-23T01:23:28;96527.44;;;8.41;73.09
39769;BME280;38939;47.824;14.642;2023-03-23T01:24:30;96521.03;;;8.44;72.83
39769;BME280;38939;47.824;14.642;2023-03-23T01:25:35;96525.03;;;8.46;72.45
39769;BME280;38939;47.824;14.642;2023-03-23T01:26:37;96520.59;;;8.40;73.63
39769;BME280;38939;47.824;14.642;2023-03-23T01:27:37;96521.78;;;8.37;73.59
39769;BME280;38939;47.824;14.642;2023-03-23T01:28:39;96515.59;;;8.38;72.84
39769;BME280;38939;47.824;14.642;2023-03-23T01:29:40;96520.25;;;8.43;73.10
39769;BME280;38939;47.824;14.642;2023-03-23T01:30:41;96522.84;;;8.43;73.44
39769;BME280;38939;47.824;14.642;2023-03-23T01:31:42;96518.25;;;8.45;72.29
39769;BME280;38939;47.824;14.642;2023-03-23T01:32:43;96524.03;;;8.47;72.74
39769;BME280;38939;47.824;14.642;2023-03-23T01:33:44;96520.44;;;8.48;72.46
39769;BME280;38939;47.824;14.642;2023-03-23T01:34:45;96518.84;;;8.47;73.25
39769;BME280;38939;47.824;14.642;2023-03-23T01:35:46;96520.25;;;8.43;73.48
39769;BME280;38939;47.824;14.642;2023-03-23T01:36:46;96521.59;;;8.39;73.76
39769;BME280;38939;47.824;14.642;2023-03-23T01:37:47;96515.38;;;8.40;73.78
39769;BME280;38939;47.824;14.642;2023-03-23T01:38:49;96516.03;;;8.42;72.49
39769;BME280;38939;47.824;14.642;2023-03-23T01:39:50;96517.44;;;8.45;73.07
39769;BME280;38939;47.824;14.642;2023-03-23T01:40:51;96518.84;;;8.47;72.91
39769;BME280;38939;47.824;14.642;2023-03-23T01:41:52;96511.66;;;8.49;72.86
39769;BME280;38939;47.824;14.642;2023-03-23T01:42:52;96517.03;;;8.48;73.61
39769;BME280;38939;47.824;14.642;2023-03-23T01:44:07;96507.84;;;8.45;73.56
39769;BME280;38939;47.824;14.642;2023-03-23T01:45:24;96512.19;;;8.38;73.87
39769;BME280;38939;47.824;14.642;2023-03-23T01:46:28;96509.38;;;8.33;74.43
39769;BME280;38939;47.824;14.642;2023-03-23T01:47:29;96506.19;;;8.31;74.20
39769;BME280;38939;47.824;14.642;2023-03-23T01:48:35;96508.19;;;8.35;74.15
39769;BME280;38939;47.824;14.642;2023-03-23T01:49:42;96506.19;;;8.37;74.54
39769;BME280;38939;47.824;14.642;2023-03-23T01:50:55;96506.00;;;8.32;74.74
39769;BME280;38939;47.824;14.642;2023-03-23T01:52:01;96506.34;;;8.16;75.91
39769;BME280;38939;47.824;14.642;2023-03-23T01:53:06;96498.94;;;8.06;75.91
39769;BME280;38939;47.824;14.642;2023-03-23T01:54:12;96498.72;;;8.08;76.58
39769;BME280;38939;47.824;14.642;2023-03-23T01:55:14;96496.94;;;8.08;76.26
39769;BME280;38939;47.824;14.642;2023-03-23T01:56:18;96497.31;;;8.12;76.11
39769;BME280;38939;47.824;14.642;2023-03-23T01:57:22;96502.91;;;8.02;76.53
39769;BME280;38939;47.824;14.642;2023-03-23T01:58:29;96497.31;;;7.98;77.34
39769;BME280;38939;47.824;14.642;2023-03-23T01:59:32;96501.31;;;8.01;76.88
39769;BME280;38939;47.824;14.642;2023-03-23T02:00:34;96496.34;;;8.06;77.13
39769;BME280;38939;47.824;14.642;2023-03-23T02:01:35;96492.13;;;8.12;76.69
39769;BME280;38939;47.824;14.642;2023-03-23T02:02:43;96496.75;;;8.16;76.59
39769;BME280;38939;47.824;14.642;2023-03-23T02:03:45;96497.13;;;8.13;77.02
39769;BME280;38939;47.824;14.642;2023-03-23T02:04:48;96495.34;;;8.14;76.55
39769;BME280;38939;47.824;14.642;2023-03-23T02:05:50;96501.56;;;8.19;76.03
39769;BME280;38939;47.824;14.642;2023-03-23T02:06:53;96501.34;;;8.21;76.54
39769;BME280;38939;47.824;14.642;2023-03-23T02:07:58;96501.38;;;8.28;75.93
39769;BME280;38939;47.824;14.642;2023-03-23T02:09:03;96502.56;;;8.32;75.17
39769;BME280;38939;47.824;14.642;2023-03-23T02:10:06;96495.00;;;8.30;75.88
39769;BME280;38939;47.824;14.642;2023-03-23T02:11:13;96495.38;;;8.34;75.20
39769;BME280;38939;47.824;14.642;2023-03-23T02:12:14;96496.59;;;8.38;75.09
39769;BME280;38939;47.824;14.642;2023-03-23T02:13:16;96500.41;;;8.42;74.48
39769;BME280;38939;47.824;14.642;2023-03-23T02:14:17;96496.66;;;8.45;74.65
39769;BME280;38939;47.824;14.642;2023-03-23T02:15:18;96497.41;;;8.38;75.39
39769;BME280;38939;47.824;14.642;2023-03-23T02:16:52;96494.59;;;8.40;74.55
39769;BME280;38939;47.824;14.642;2023-03-23T02:18:20;96494.84;;;8.45;74.22
39769;BME280;38939;47.824;14.642;2023-03-23T02:21:03;96498.84;;;8.48;74.67
39769;BME280;38939;47.824;14.642;2023-03-23T02:30:06;96491.81;;;8.48;74.46
39769;BME280;38939;47.824;14.642;2023-03-23T02:31:37;96497.44;;;8.45;75.18
39769;BME280;38939;47.824;14.642;2023-03-23T02:34:58;96495.81;;;8.44;74.57
39769;BME280;38939;47.824;14.642;2023-03-23T02:36:05;96495.44;;;8.47;73.68
39769;BME280;38939;47.824;14.642;2023-03-23T02:37:30;96490.63;;;8.44;74.46
39769;BME280;38939;47.824;14.642;2023-03-23T02:40:04;96500.63;;;8.40;74.93
39769;BME280;38939;47.824;14.642;2023-03-23T02:41:12;96499.00;;;8.39;75.40
39769;BME280;38939;47.824;14.642;2023-03-23T02:42:21;96496.22;;;8.41;74.81
39769;BME280;38939;47.824;14.642;2023-03-23T02:43:26;96494.25;;;8.43;73.93
39769;BME280;38939;47.824;14.642;2023-03-23T02:44:29;96491.22;;;8.46;74.48
39769;BME280;38939;47.824;14.642;2023-03-23T02:45:33;96491.81;;;8.48;74.00
39769;BME280;38939;47.824;14.642;2023-03-23T02:46:35;96502.22;;;8.48;73.88
39769;BME280;38939;47.824;14.642;2023-03-23T02:47:38;96503.84;;;8.49;74.29
39769;BME280;38939;47.824;14.642;2023-03-23T02:48:42;96494.84;;;8.52;73.37
39769;BME280;38939;47.824;14.642;2023-03-23T02:49:46;96495.25;;;8.55;73.15
39769;BME280;38939;47.824;14.642;2023-03-23T02:50:51;96495.84;;;8.57;73.21
39769;BME280;38939;47.824;14.642;2023-03-23T02:51:54;96491.06;;;8.54;73.94
39769;BME280;38939;47.824;14.642;2023-03-23T02:52:56;96491.81;;;8.48;74.19
39769;BME280;38939;47.824;14.642;2023-03-23T02:53:59;96494.44;;;8.48;74.47
39769;BME280;38939;47.824;14.642;2023-03-23T02:55:02;96492.25;;;8.45;74.45
39769;BME280;38939;47.824;14.642;2023-03-23T02:56:06;96494.44;;;8.41;74.44
39769;BME280;38939;47.824;14.642;2023-03-23T02:57:10;96491.59;;;8.36;75.28
39769;BME280;38939;47.824;14.642;2023-03-23T02:58:12;96490.97;;;8.28;75.35
39769;BME280;38939;47.824;14.642;2023-03-23T02:59:13;96499.00;;;8.26;75.87
39769;BME280;38939;47.824;14.642;2023-03-23T03:00:15;96491.19;;;8.33;75.15
39769;BME280;38939;47.824;14.642;2023-03-23T03:02:36;96490.78;;;8.29;76.07
39769;BME280;38939;47.824;14.642;2023-03-23T03:03:41;96490.59;;;8.31;75.49
39769;BME280;38939;47.824;14.642;2023-03-23T03:04:46;96492.59;;;8.35;75.57
39769;BME280;38939;47.824;14.642;2023-03-23T03:07:56;96492.00;;;8.40;75.53
39769;BME280;38939;47.824;14.642;2023-03-23T03:08:52;96494.59;;;8.40;74.79
39769;BME280;38939;47.824;14.642;2023-03-23T03:09:59;96491.59;;;8.36;75.49
39769;BME280;38939;47.824;14.642;2023-03-23T03:11:09;96497.38;;;8.32;75.83
39769;BME280;38939;47.824;14.642;2023-03-23T03:12:40;96492.53;;;8.15;76.27
39769;BME280;38939;47.824;14.642;2023-03-23T03:13:52;96491.94;;;8.13;76.65
39769;BME280;38939;47.824;14.642;2023-03-23T03:15:13;96486.94;;;8.12;77.31
39769;BME280;38939;47.824;14.642;2023-03-23T03:16:42;96487.75;;;8.19;76.68
39769;BME280;38939;47.824;14.642;2023-03-23T03:17:53;96487.34;;;8.15;77.56
39769;BME280;38939;47.824;14.642;2023-03-23T03:19:19;96480.16;;;8.11;78.10
39769;BME280;38939;47.824;14.642;2023-03-23T03:20:22;96484.94;;;8.07;77.35
39769;BME280;38939;47.824;14.642;2023-03-23T03:21:28;96476.53;;;8.05;77.63
39769;BME280;38939;47.824;14.642;2023-03-23T03:22:30;96487.16;;;8.10;76.97
39769;BME280;38939;47.824;14.642;2023-03-23T03:23:32;96484.94;;;8.14;77.70
39769;BME280;38939;47.824;14.642;2023-03-23T03:24:35;96482.56;;;8.12;77.22
39769;BME280;38939;47.824;14.642;2023-03-23T03:25:43;96484.97;;;8.20;77.27
39769;BME280;38939;47.824;14.642;2023-03-23T03:26:50;96479.38;;;8.24;77.24
39769;BME280;38939;47.824;14.642;2023-03-23T03:27:52;96479.38;;;8.24;77.24
39769;BME280;38939;47.824;14.642;2023-03-23T03:28:54;96477.78;;;8.23;76.48
39769;BME280;38939;47.824;14.642;2023-03-23T03:29:56;96479.38;;;8.24;76.49
39769;BME280;38939;47.824;14.642;2023-03-23T03:31:03;96482.56;;;8.19;77.20
39769;BME280;38939;47.824;14.642;2023-03-23T03:32:06;96480.56;;;8.14;77.22
39769;BME280;38939;47.824;14.642;2023-03-23T03:33:09;96481.34;;;8.08;77.37
39769;BME280;38939;47.824;14.642;2023-03-23T03:34:12;96470.34;;;8.06;77.11
39769;BME280;38939;47.824;14.642;2023-03-23T03:35:18;96472.91;;;7.99;77.64
39769;BME280;38939;47.824;14.642;2023-03-23T03:36:22;96480.50;;;7.94;77.56
39769;BME280;38939;47.824;14.642;2023-03-23T03:37:25;96476.09;;;7.95;78.76
39769;BME280;38939;47.824;14.642;2023-03-23T03:38:27;96474.72;;;7.99;77.93
39769;BME280;38939;47.824;14.642;2023-03-23T03:39:28;96478.94;;;8.00;77.98
39769;BME280;38939;47.824;14.642;2023-03-23T03:40:28;96477.31;;;7.99;78.31
39769;BME280;38939;47.824;14.642;2023-03-23T03:41:29;96474.13;;;7.97;77.60
39769;BME280;38939;47.824;14.642;2023-03-23T03:42:30;96477.94;;;8.01;77.74
39769;BME280;38939;47.824;14.642;2023-03-23T03:43:31;96482.13;;;8.02;77.96
39769;BME280;38939;47.824;14.642;2023-03-23T03:44:33;96480.94;;;7.98;77.86
39769;BME280;38939;47.824;14.642;2023-03-23T03:45:34;96480.94;;;7.98;77.93
39769;BME280;38939;47.824;14.642;2023-03-23T03:46:36;96478.94;;;8.00;77.32
39769;BME280;38939;47.824;14.642;2023-03-23T03:47:37;96477.13;;;8.00;77.07
39769;BME280;38939;47.824;14.642;2023-03-23T03:48:38;96486.50;;;8.01;78.45
39769;BME280;38939;47.824;14.642;2023-03-23T03:49:38;96483.91;;;8.01;77.62
39769;BME280;38939;47.824;14.642;2023-03-23T03:50:39;96481.13;;;7.96;77.59
39769;BME280;38939;47.824;14.642;2023-03-23T03:51:40;96487.09;;;7.97;78.84
39769;BME280;38939;47.824;14.642;2023-03-23T03:52:42;96482.28;;;7.87;78.76
39769;BME280;38939;47.824;14.642;2023-03-23T03:53:43;96484.69;;;7.89;77.74
39769;BME280;38939;47.824;14.642;2023-03-23T03:54:44;96478.72;;;7.95;78.09
39769;BME280;38939;47.824;14.642;2023-03-23T03:55:45;96479.13;;;7.92;77.80
39769;BME280;38939;47.824;14.642;2023-03-23T03:56:49;96483.84;;;7.81;79.17
39769;BME280;38939;47.824;14.642;2023-03-23T03:57:52;96483.25;;;7.79;78.68
39769;BME280;38939;47.824;14.642;2023-03-23T03:58:53;96479.66;;;7.80;78.39
39769;BME280;38939;47.824;14.642;2023-03-23T03:59:54;96481.66;;;7.85;78.09
39769;BME280;38939;47.824;14.642;2023-03-23T04:00:54;96483.25;;;7.79;78.65
39769;BME280;38939;47.824;14.642;2023-03-23T04:01:57;96474.06;;;7.77;78.42
39769;BME280;38939;47.824;14.642;2023-03-23T04:02:57;96486.66;;;7.80;77.66
39769;BME280;38939;47.824;14.642;2023-03-23T04:04:00;96481.84;;;7.84;77.99
39769;BME280;38939;47.824;14.642;2023-03-23T04:05:01;96484.06;;;7.87;77.53
39769;BME280;38939;47.824;14.642;2023-03-23T04:06:04;96483.69;;;7.90;78.37
39769;BME280;38939;47.824;14.642;2023-03-23T04:07:05;96483.28;;;7.86;78.94
39769;BME280;38939;47.824;14.642;2023-03-23T04:08:06;96480.88;;;7.85;78.12
39769;BME280;38939;47.824;14.642;2023-03-23T04:09:07;96482.47;;;7.86;78.49
39769;BME280;38939;47.824;14.642;2023-03-23T04:10:09;96479.66;;;7.80;79.06
39769;BME280;38939;47.824;14.642;2023-03-23T04:11:13;96482.03;;;7.75;79.45
39769;BME280;38939;47.824;14.642;2023-03-23T04:12:15;96479.66;;;7.80;78.56
39769;BME280;38939;47.824;14.642;2023-03-23T04:13:16;96480.69;;;7.86;78.33
39769;BME280;38939;47.824;14.642;2023-03-23T04:14:17;96484.06;;;7.87;78.90
39769;BME280;38939;47.824;14.642;2023-03-23T04:15:18;96478.03;;;7.79;78.83
39769;BME280;38939;47.824;14.642;2023-03-23T04:16:19;96483.47;;;7.78;78.40
39769;BME280;38939;47.824;14.642;2023-03-23T04:17:21;96482.25;;;7.80;78.23
39769;BME280;38939;47.824;14.642;2023-03-23T04:18:22;96482.03;;;7.75;78.68
39769;BME280;38939;47.824;14.642;2023-03-23T04:19:24;96484.22;;;7.72;78.89
39769;BME280;38939;47.824;14.642;2023-03-23T04:20:26;96484.00;;;7.73;78.75
39769;BME280;38939;47.824;14.642;2023-03-23T04:21:27;96488.00;;;7.69;78.32
39769;BME280;38939;47.824;14.642;2023-03-23T04:22:30;96483.03;;;7.68;78.98
39769;BME280;38939;47.824;14.642;2023-03-23T04:23:31;96481.59;;;7.65;79.29
39769;BME280;38939;47.824;14.642;2023-03-23T04:24:34;96479.59;;;7.67;79.66
39769;BME280;38939;47.824;14.642;2023-03-23T04:25:36;96482.41;;;7.66;79.21
39769;BME280;38939;47.824;14.642;2023-03-23T04:26:37;96483.81;;;7.68;78.40
39769;BME280;38939;47.824;14.642;2023-03-23T04:27:41;96480.78;;;7.65;78.54
39769;BME280;38939;47.824;14.642;2023-03-23T04:28:46;96487.00;;;7.64;79.31
39769;BME280;38939;47.824;14.642;2023-03-23T04:29:47;96481.59;;;7.65;79.26
39769;BME280;38939;47.824;14.642;2023-03-23T04:30:51;96477.59;;;7.63;78.94
39769;BME280;38939;47.824;14.642;2023-03-23T04:31:55;96482.38;;;7.59;79.25
39769;BME280;38939;47.824;14.642;2023-03-23T04:32:56;96477.16;;;7.59;79.92
39769;BME280;38939;47.824;14.642;2023-03-23T04:33:57;96479.00;;;7.65;79.78
39769;BME280;38939;47.824;14.642;2023-03-23T04:35:00;96474.41;;;7.67;78.95
39769;BME280;38939;47.824;14.642;2023-03-23T04:36:01;96482.00;;;7.69;79.04
39769;BME280;38939;47.824;14.642;2023-03-23T04:37:02;96481.03;;;7.70;79.53
39769;BME280;38939;47.824;14.642;2023-03-23T04:38:03;96479.22;;;7.64;79.00
39769;BME280;38939;47.824;14.642;2023-03-23T04:39:04;96481.59;;;7.65;78.92
39769;BME280;38939;47.824;14.642;2023-03-23T04:40:12;96477.22;;;7.66;79.15
39769;BME280;38939;47.824;14.642;2023-03-23T04:41:14;96485.41;;;7.69;78.53
39769;BME280;38939;47.824;14.642;2023-03-23T04:42:15;96482.44;;;7.72;79.37
39769;BME280;38939;47.824;14.642;2023-03-23T04:43:16;96481.22;;;7.68;78.94
39769;BME280;38939;47.824;14.642;2023-03-23T04:44:17;96480.81;;;7.71;79.34
39769;BME280;38939;47.824;14.642;2023-03-23T04:45:21;96471.63;;;7.69;78.66
39769;BME280;38939;47.824;14.642;2023-03-23T04:46:22;96488.81;;;7.70;78.63
39769;BME280;38939;47.824;14.642;2023-03-23T04:47:24;96480.00;;;7.64;79.48
39769;BME280;38939;47.824;14.642;2023-03-23T04:48:30;96484.78;;;7.67;78.71
39769;BME280;38939;47.824;14.642;2023-03-23T04:49:33;96484.59;;;7.69;78.59
39769;BME280;38939;47.824;14.642;2023-03-23T04:50:34;96487.19;;;7.62;78.94
39769;BME280;38939;47.824;14.642;2023-03-23T04:51:35;96487.59;;;7.66;79.18
39769;BME280;38939;47.824;14.642;2023-03-23T04:52:36;96489.78;;;7.62;78.47
39769;BME280;38939;47.824;14.642;2023-03-23T04:53:38;96494.19;;;7.61;78.65
39769;BME280;38939;47.824;14.642;2023-03-23T04:54:39;96491.16;;;7.58;78.47
39769;BME280;38939;47.824;14.642;2023-03-23T04:55:40;96496.31;;;7.51;79.05
39769;BME280;38939;47.824;14.642;2023-03-23T04:56:41;96491.53;;;7.55;78.81
39769;BME280;38939;47.824;14.642;2023-03-23T04:57:42;96487.97;;;7.56;79.14
39769;BME280;38939;47.824;14.642;2023-03-23T04:58:45;96494.38;;;7.60;78.47
39769;BME280;38939;47.824;14.642;2023-03-23T04:59:46;96489.97;;;7.60;79.31
39769;BME280;38939;47.824;14.642;2023-03-23T05:00:47;96495.75;;;7.56;79.36
39769;BME280;38939;47.824;14.642;2023-03-23T05:01:51;96494.75;;;7.57;79.05
39769;BME280;38939;47.824;14.642;2023-03-23T05:02:52;96498.34;;;7.56;78.76
39769;BME280;38939;47.824;14.642;2023-03-23T05:03:53;96494.53;;;7.52;78.86
39769;BME280;38939;47.824;14.642;2023-03-23T05:04:54;96499.13;;;7.50;78.73
39769;BME280;38939;47.824;14.642;2023-03-23T05:05:55;96499.91;;;7.50;79.17
39769;BME280;38939;47.824;14.642;2023-03-23T05:06:56;96505.09;;;7.50;79.55
39769;BME280;38939;47.824;14.642;2023-03-23T05:07:57;96497.50;;;7.49;78.70
39769;BME280;38939;47.824;14.642;2023-03-23T05:08:58;96503.09;;;7.46;80.12
39769;BME280;38939;47.824;14.642;2023-03-23T05:09:58;96503.84;;;7.39;79.37
39769;BME280;38939;47.824;14.642;2023-03-23T05:11:00;96501.03;;;7.41;79.74
39769;BME280;38939;47.824;14.642;2023-03-23T05:12:09;96504.47;;;7.41;79.48
39769;BME280;38939;47.824;14.642;2023-03-23T05:13:10;96509.25;;;7.45;79.83
39769;BME280;38939;47.824;14.642;2023-03-23T05:14:11;96502.25;;;7.45;79.70
39769;BME280;38939;47.824;14.642;2023-03-23T05:15:14;96507.06;;;7.41;79.40
39769;BME280;38939;47.824;14.642;2023-03-23T05:16:15;96506.66;;;7.45;80.13
39769;BME280;38939;47.824;14.642;2023-03-23T05:17:16;96509.28;;;7.51;79.05
39769;BME280;38939;47.824;14.642;2023-03-23T05:18:17;96508.53;;;7.57;79.58
39769;BME280;38939;47.824;14.642;2023-03-23T05:19:18;96505.53;;;7.54;79.08
39769;BME280;38939;47.824;14.642;2023-03-23T05:20:19;96498.94;;;7.58;79.32
39769;BME280;38939;47.824;14.642;2023-03-23T05:21:23;96506.16;;;7.63;79.14
39769;BME280;38939;47.824;14.642;2023-03-23T05:22:27;96512.56;;;7.67;78.59
39769;BME280;38939;47.824;14.642;2023-03-23T05:23:28;96504.78;;;7.67;78.59
39769;BME280;38939;47.824;14.642;2023-03-23T05:24:31;96512.34;;;7.61;78.23
39769;BME280;38939;47.824;14.642;2023-03-23T05:25:33;96513.94;;;7.63;79.05
39769;BME280;38939;47.824;14.642;2023-03-23T05:26:37;96509.16;;;7.66;78.55
39769;BME280;38939;47.824;14.642;2023-03-23T05:27:38;96514.97;;;7.68;78.72
39769;BME280;38939;47.824;14.642;2023-03-23T05:28:38;96515.19;;;7.73;78.65
39769;BME280;38939;47.824;14.642;2023-03-23T05:29:42;96514.19;;;7.74;78.42
39769;BME280;38939;47.824;14.642;2023-03-23T05:30:42;96516.19;;;7.72;78.60
39769;BME280;38939;47.824;14.642;2023-03-23T05:31:44;96505.41;;;7.75;78.82
39769;BME280;38939;47.824;14.642;2023-03-23T05:32:47;96511.59;;;7.74;78.17
39769;BME280;38939;47.824;14.642;2023-03-23T05:33:51;96513.41;;;7.74;78.77
39769;BME280;38939;47.824;14.642;2023-03-23T05:34:52;96519.75;;;7.71;79.27
39769;BME280;38939;47.824;14.642;2023-03-23T05:35:53;96509.78;;;7.68;78.34
39769;BME280;38939;47.824;14.642;2023-03-23T05:36:55;96515.94;;;7.67;78.99
39769;BME280;38939;47.824;14.642;2023-03-23T05:37:57;96504.34;;;7.63;78.05
39769;BME280;38939;47.824;14.642;2023-03-23T05:38:58;96507.78;;;7.64;79.39
39769;BME280;38939;47.824;14.642;2023-03-23T05:40:00;96520.16;;;7.61;78.53
39769;BME280;38939;47.824;14.642;2023-03-23T05:41:06;96518.34;;;7.62;79.54
39769;BME280;38939;47.824;14.642;2023-03-23T05:42:07;96516.78;;;7.68;79.21
39769;BME280;38939;47.824;14.642;2023-03-23T05:43:09;96524.34;;;7.69;79.62
39769;BME280;38939;47.824;14.642;2023-03-23T05:44:11;96503.19;;;7.66;79.42
39769;BME280;38939;47.824;14.642;2023-03-23T05:45:13;96520.34;;;7.67;78.94
39769;BME280;38939;47.824;14.642;2023-03-23T05:46:14;96522.97;;;7.73;78.72
39769;BME280;38939;47.824;14.642;2023-03-23T05:47:15;96523.22;;;7.78;79.12
39769;BME280;38939;47.824;14.642;2023-03-23T05:48:16;96522.19;;;7.79;78.61
39769;BME280;38939;47.824;14.642;2023-03-23T05:49:17;96526.41;;;7.80;77.87
39769;BME280;38939;47.824;14.642;2023-03-23T05:50:18;96524.41;;;7.82;78.79
39769;BME280;38939;47.824;14.642;2023-03-23T05:51:19;96527.63;;;7.85;78.54